sensor_id;sensor_type;location;lat;lon;timestamp;temperature;humidity
16066;DHT22;8137;48.952;8.970;2022-08-05T00:01:18;22.20;99.90
16066;DHT22;8137;48.952;8.970;2022-08-05T00:03:48;22.20;99.90
16066;DHT22;8137;48.952;8.970;2022-08-05T00:06:14;22.10;99.90
16066;DHT22;8137;48.952;8.970;2022-08-05T00:08:40;22.10;99.90
16066;DHT22;8137;48.952;8.970;2022-08-05T00:11:12;22.00;99.90
16066;DHT22;8137;48.952;8.970;2022-08-05T00:13:40;22.10;99.90
16066;DHT22;8137;48.952;8.970;2022-08-05T00:16:11;22.10;99.90
16066;DHT22;8137;48.952;8.970;2022-08-05T00:18:37;22.00;99.90
16066;DHT22;8137;48.952;8.970;2022-08-05T00:21:04;22.00;99.90
16066;DHT22;8137;48.952;8.970;2022-08-05T00:23:30;22.00;99.90
16066;DHT22;8137;48.952;8.970;2022-08-05T00:25:56;22.00;99.90
16066;DHT22;8137;48.952;8.970;2022-08-05T00:28:21;22.00;99.90
16066;DHT22;8137;48.952;8.970;2022-08-05T00:30:47;22.10;99.90
16066;DHT22;8137;48.952;8.970;2022-08-05T00:33:15;22.10;99.90
16066;DHT22;8137;48.952;8.970;2022-08-05T00:35:41;22.10;99.90
16066;DHT22;8137;48.952;8.970;2022-08-05T00:38:06;22.10;99.90
16066;DHT22;8137;48.952;8.970;2022-08-05T00:40:32;22.10;99.90
16066;DHT22;8137;48.952;8.970;2022-08-05T00:43:00;22.10;99.90
16066;DHT22;8137;48.952;8.970;2022-08-05T00:45:26;22.10;99.90
16066;DHT22;8137;48.952;8.970;2022-08-05T00:47:52;22.20;99.90
16066;DHT22;8137;48.952;8.970;2022-08-05T00:50:18;22.40;99.90
16066;DHT22;8137;48.952;8.970;2022-08-05T00:52:43;22.60;99.90
16066;DHT22;8137;48.952;8.970;2022-08-05T00:55:09;22.80;99.90
16066;DHT22;8137;48.952;8.970;2022-08-05T00:57:36;23.20;99.90
16066;DHT22;8137;48.952;8.970;2022-08-05T01:00:03;23.50;99.90
16066;DHT22;8137;48.952;8.970;2022-08-05T01:02:29;23.80;99.90
16066;DHT22;8137;48.952;8.970;2022-08-05T01:04:55;24.00;99.90
16066;DHT22;8137;48.952;8.970;2022-08-05T01:07:20;24.20;99.90
16066;DHT22;8137;48.952;8.970;2022-08-05T01:09:46;24.30;99.90
16066;DHT22;8137;48.952;8.970;2022-08-05T01:12:16;24.50;99.90
16066;DHT22;8137;48.952;8.970;2022-08-05T01:17:31;24.50;99.90
16066;DHT22;8137;48.952;8.970;2022-08-05T01:20:08;24.60;99.90
16066;DHT22;8137;48.952;8.970;2022-08-05T01:25:37;24.80;99.90
16066;DHT22;8137;48.952;8.970;2022-08-05T01:33:40;24.50;99.90
16066;DHT22;8137;48.952;8.970;2022-08-05T01:36:11;24.40;99.90
16066;DHT22;8137;48.952;8.970;2022-08-05T01:38:38;24.50;99.90
16066;DHT22;8137;48.952;8.970;2022-08-05T01:41:05;24.40;99.90
16066;DHT22;8137;48.952;8.970;2022-08-05T01:43:32;24.40;99.90
16066;DHT22;8137;48.952;8.970;2022-08-05T01:45:59;24.40;99.90
16066;DHT22;8137;48.952;8.970;2022-08-05T01:48:26;24.30;99.90
16066;DHT22;8137;48.952;8.970;2022-08-05T01:50:52;24.30;99.90
16066;DHT22;8137;48.952;8.970;2022-08-05T01:53:20;24.20;99.90
16066;DHT22;8137;48.952;8.970;2022-08-05T01:55:48;24.00;99.90
16066;DHT22;8137;48.952;8.970;2022-08-05T01:58:15;24.00;99.90
16066;DHT22;8137;48.952;8.970;2022-08-05T02:00:45;23.90;99.90
16066;DHT22;8137;48.952;8.970;2022-08-05T02:03:36;23.80;99.90
16066;DHT22;8137;48.952;8.970;2022-08-05T02:06:03;23.70;99.90
16066;DHT22;8137;48.952;8.970;2022-08-05T02:08:31;23.80;99.90
16066;DHT22;8137;48.952;8.970;2022-08-05T02:11:10;23.80;99.90
16066;DHT22;8137;48.952;8.970;2022-08-05T02:13:58;23.70;99.90
16066;DHT22;8137;48.952;8.970;2022-08-05T02:16:41;23.70;99.90
16066;DHT22;8137;48.952;8.970;2022-08-05T02:22:15;23.50;99.90
16066;DHT22;8137;48.952;8.970;2022-08-05T02:24:49;23.40;99.90
16066;DHT22;8137;48.952;8.970;2022-08-05T02:27:17;23.40;99.90
16066;DHT22;8137;48.952;8.970;2022-08-05T02:29:45;23.30;99.90
16066;DHT22;8137;48.952;8.970;2022-08-05T02:32:12;23.30;99.90
16066;DHT22;8137;48.952;8.970;2022-08-05T02:34:41;23.20;99.90
16066;DHT22;8137;48.952;8.970;2022-08-05T02:37:07;23.20;99.90
16066;DHT22;8137;48.952;8.970;2022-08-05T02:39:36;23.10;99.90
16066;DHT22;8137;48.952;8.970;2022-08-05T02:42:03;23.10;99.90
16066;DHT22;8137;48.952;8.970;2022-08-05T02:44:31;23.00;99.90
16066;DHT22;8137;48.952;8.970;2022-08-05T02:46:59;22.90;99.90
16066;DHT22;8137;48.952;8.970;2022-08-05T02:49:27;22.90;99.90
16066;DHT22;8137;48.952;8.970;2022-08-05T02:51:55;22.90;99.90
16066;DHT22;8137;48.952;8.970;2022-08-05T02:54:21;22.80;99.90
16066;DHT22;8137;48.952;8.970;2022-08-05T02:56:47;22.80;99.90
16066;DHT22;8137;48.952;8.970;2022-08-05T02:59:14;22.70;99.90
16066;DHT22;8137;48.952;8.970;2022-08-05T03:01:41;22.60;99.90
16066;DHT22;8137;48.952;8.970;2022-08-05T03:04:10;22.50;99.90
16066;DHT22;8137;48.952;8.970;2022-08-05T03:06:37;22.50;99.90
16066;DHT22;8137;48.952;8.970;2022-08-05T03:09:04;22.50;99.90
16066;DHT22;8137;48.952;8.970;2022-08-05T03:11:29;22.60;99.90
16066;DHT22;8137;48.952;8.970;2022-08-05T03:13:55;22.60;99.90
16066;DHT22;8137;48.952;8.970;2022-08-05T03:16:21;22.60;99.90
16066;DHT22;8137;48.952;8.970;2022-08-05T03:18:47;22.60;99.90
16066;DHT22;8137;48.952;8.970;2022-08-05T03:21:13;22.50;99.90
16066;DHT22;8137;48.952;8.970;2022-08-05T03:23:41;22.50;99.90
16066;DHT22;8137;48.952;8.970;2022-08-05T03:26:07;22.50;99.90
16066;DHT22;8137;48.952;8.970;2022-08-05T03:28:33;22.40;99.90
16066;DHT22;8137;48.952;8.970;2022-08-05T03:30:59;22.30;99.90
16066;DHT22;8137;48.952;8.970;2022-08-05T03:33:29;22.30;99.90
16066;DHT22;8137;48.952;8.970;2022-08-05T03:35:56;22.20;99.90
16066;DHT22;8137;48.952;8.970;2022-08-05T03:38:24;22.30;99.90
16066;DHT22;8137;48.952;8.970;2022-08-05T03:40:49;22.20;99.90
16066;DHT22;8137;48.952;8.970;2022-08-05T03:43:16;22.20;99.90
16066;DHT22;8137;48.952;8.970;2022-08-05T03:45:42;22.20;99.90
16066;DHT22;8137;48.952;8.970;2022-08-05T03:48:08;22.20;99.90
16066;DHT22;8137;48.952;8.970;2022-08-05T03:50:51;22.20;99.90
16066;DHT22;8137;48.952;8.970;2022-08-05T03:59:00;22.20;99.90
16066;DHT22;8137;48.952;8.970;2022-08-05T04:01:29;22.20;99.90
16066;DHT22;8137;48.952;8.970;2022-08-05T04:03:57;22.20;99.90
16066;DHT22;8137;48.952;8.970;2022-08-05T04:06:24;22.20;99.90
16066;DHT22;8137;48.952;8.970;2022-08-05T04:08:50;22.20;99.90
16066;DHT22;8137;48.952;8.970;2022-08-05T04:11:17;22.20;99.90
16066;DHT22;8137;48.952;8.970;2022-08-05T04:13:43;22.20;99.90
16066;DHT22;8137;48.952;8.970;2022-08-05T04:16:11;22.10;99.90
16066;DHT22;8137;48.952;8.970;2022-08-05T04:18:37;22.00;99.90
16066;DHT22;8137;48.952;8.970;2022-08-05T04:21:07;21.90;99.90
16066;DHT22;8137;48.952;8.970;2022-08-05T04:23:34;21.90;99.90
16066;DHT22;8137;48.952;8.970;2022-08-05T04:26:01;22.00;99.90
16066;DHT22;8137;48.952;8.970;2022-08-05T04:28:27;22.00;99.90
16066;DHT22;8137;48.952;8.970;2022-08-05T04:30:52;22.10;99.90
16066;DHT22;8137;48.952;8.970;2022-08-05T04:33:18;22.10;99.90
16066;DHT22;8137;48.952;8.970;2022-08-05T04:35:43;22.10;99.90
16066;DHT22;8137;48.952;8.970;2022-08-05T04:38:10;22.10;99.90
16066;DHT22;8137;48.952;8.970;2022-08-05T04:40:37;22.10;99.90
16066;DHT22;8137;48.952;8.970;2022-08-05T04:43:04;22.20;99.90
16066;DHT22;8137;48.952;8.970;2022-08-05T04:45:30;22.30;99.90
16066;DHT22;8137;48.952;8.970;2022-08-05T04:48:09;22.30;99.90
16066;DHT22;8137;48.952;8.970;2022-08-05T04:50:44;22.40;99.90
16066;DHT22;8137;48.952;8.970;2022-08-05T04:53:10;22.40;99.90
16066;DHT22;8137;48.952;8.970;2022-08-05T04:55:36;22.50;99.90
16066;DHT22;8137;48.952;8.970;2022-08-05T04:58:04;22.60;99.90
16066;DHT22;8137;48.952;8.970;2022-08-05T05:00:31;22.70;99.90
16066;DHT22;8137;48.952;8.970;2022-08-05T05:02:57;22.70;99.90
16066;DHT22;8137;48.952;8.970;2022-08-05T05:05:23;22.80;99.90
16066;DHT22;8137;48.952;8.970;2022-08-05T05:07:48;23.00;99.90
16066;DHT22;8137;48.952;8.970;2022-08-05T05:10:14;23.10;99.90
16066;DHT22;8137;48.952;8.970;2022-08-05T05:12:39;23.40;99.90
16066;DHT22;8137;48.952;8.970;2022-08-05T05:15:05;23.60;99.90
16066;DHT22;8137;48.952;8.970;2022-08-05T05:17:39;23.80;99.90
16066;DHT22;8137;48.952;8.970;2022-08-05T05:20:06;24.00;99.90
16066;DHT22;8137;48.952;8.970;2022-08-05T05:22:32;24.10;99.90
16066;DHT22;8137;48.952;8.970;2022-08-05T05:24:57;24.00;99.90
16066;DHT22;8137;48.952;8.970;2022-08-05T05:27:23;24.00;99.90
16066;DHT22;8137;48.952;8.970;2022-08-05T05:29:49;23.90;99.90
16066;DHT22;8137;48.952;8.970;2022-08-05T05:32:14;24.00;99.90
16066;DHT22;8137;48.952;8.970;2022-08-05T05:34:40;24.10;99.90
16066;DHT22;8137;48.952;8.970;2022-08-05T05:37:05;24.20;99.90
16066;DHT22;8137;48.952;8.970;2022-08-05T05:39:31;24.20;99.90
16066;DHT22;8137;48.952;8.970;2022-08-05T05:41:57;24.20;99.90
16066;DHT22;8137;48.952;8.970;2022-08-05T05:44:22;24.30;99.90
16066;DHT22;8137;48.952;8.970;2022-08-05T05:46:48;24.20;99.90
16066;DHT22;8137;48.952;8.970;2022-08-05T05:49:13;24.10;99.90
16066;DHT22;8137;48.952;8.970;2022-08-05T05:51:39;24.10;99.90
16066;DHT22;8137;48.952;8.970;2022-08-05T05:54:04;24.10;99.90
16066;DHT22;8137;48.952;8.970;2022-08-05T05:56:30;24.10;99.90
16066;DHT22;8137;48.952;8.970;2022-08-05T05:58:56;24.10;99.90
16066;DHT22;8137;48.952;8.970;2022-08-05T06:01:22;24.30;99.90
16066;DHT22;8137;48.952;8.970;2022-08-05T06:03:47;24.60;99.90
16066;DHT22;8137;48.952;8.970;2022-08-05T06:06:13;24.90;99.90
16066;DHT22;8137;48.952;8.970;2022-08-05T06:08:38;25.10;99.90
16066;DHT22;8137;48.952;8.970;2022-08-05T06:11:04;25.30;99.90
16066;DHT22;8137;48.952;8.970;2022-08-05T06:13:30;25.50;99.90
16066;DHT22;8137;48.952;8.970;2022-08-05T06:15:56;25.60;99.90
16066;DHT22;8137;48.952;8.970;2022-08-05T06:18:21;25.70;99.90
16066;DHT22;8137;48.952;8.970;2022-08-05T06:20:47;25.90;99.90
16066;DHT22;8137;48.952;8.970;2022-08-05T06:23:13;26.00;99.90
16066;DHT22;8137;48.952;8.970;2022-08-05T06:25:38;26.10;99.90
16066;DHT22;8137;48.952;8.970;2022-08-05T06:28:04;26.10;99.90
16066;DHT22;8137;48.952;8.970;2022-08-05T06:30:29;26.10;99.90
16066;DHT22;8137;48.952;8.970;2022-08-05T06:32:55;26.10;99.90
16066;DHT22;8137;48.952;8.970;2022-08-05T06:35:20;26.00;99.90
16066;DHT22;8137;48.952;8.970;2022-08-05T06:37:46;26.00;99.90
16066;DHT22;8137;48.952;8.970;2022-08-05T06:40:12;26.10;99.90
16066;DHT22;8137;48.952;8.970;2022-08-05T06:42:38;26.10;99.90
16066;DHT22;8137;48.952;8.970;2022-08-05T06:45:04;26.20;99.90
16066;DHT22;8137;48.952;8.970;2022-08-05T06:47:30;26.20;99.90
16066;DHT22;8137;48.952;8.970;2022-08-05T06:49:55;26.00;99.90
16066;DHT22;8137;48.952;8.970;2022-08-05T06:52:21;25.80;99.90
16066;DHT22;8137;48.952;8.970;2022-08-05T06:54:47;25.70;99.90
16066;DHT22;8137;48.952;8.970;2022-08-05T06:57:12;25.60;99.90
16066;DHT22;8137;48.952;8.970;2022-08-05T06:59:40;25.50;99.90
16066;DHT22;8137;48.952;8.970;2022-08-05T07:02:06;25.40;99.90
16066;DHT22;8137;48.952;8.970;2022-08-05T07:04:32;25.50;99.90
16066;DHT22;8137;48.952;8.970;2022-08-05T07:06:57;25.50;99.90
16066;DHT22;8137;48.952;8.970;2022-08-05T07:09:23;25.50;99.90
16066;DHT22;8137;48.952;8.970;2022-08-05T07:11:48;25.70;99.90
16066;DHT22;8137;48.952;8.970;2022-08-05T07:14:14;25.90;99.90
16066;DHT22;8137;48.952;8.970;2022-08-05T07:16:59;26.20;99.90
16066;DHT22;8137;48.952;8.970;2022-08-05T07:19:25;26.30;99.90
16066;DHT22;8137;48.952;8.970;2022-08-05T07:21:55;26.50;99.90
16066;DHT22;8137;48.952;8.970;2022-08-05T07:24:22;26.60;99.90
16066;DHT22;8137;48.952;8.970;2022-08-05T07:26:48;26.20;99.90
16066;DHT22;8137;48.952;8.970;2022-08-05T07:29:14;26.10;99.90
16066;DHT22;8137;48.952;8.970;2022-08-05T07:31:40;26.00;99.90
16066;DHT22;8137;48.952;8.970;2022-08-05T07:34:06;25.90;99.90
16066;DHT22;8137;48.952;8.970;2022-08-05T07:36:32;25.90;99.90
16066;DHT22;8137;48.952;8.970;2022-08-05T07:39:00;25.90;99.90
16066;DHT22;8137;48.952;8.970;2022-08-05T07:41:26;26.10;99.90
16066;DHT22;8137;48.952;8.970;2022-08-05T07:43:52;26.30;99.90
16066;DHT22;8137;48.952;8.970;2022-08-05T07:46:18;26.40;99.90
16066;DHT22;8137;48.952;8.970;2022-08-05T07:48:43;26.40;99.90
16066;DHT22;8137;48.952;8.970;2022-08-05T07:51:09;26.50;99.90
16066;DHT22;8137;48.952;8.970;2022-08-05T07:53:34;26.50;99.90
16066;DHT22;8137;48.952;8.970;2022-08-05T07:56:04;26.70;99.90
16066;DHT22;8137;48.952;8.970;2022-08-05T07:58:30;26.90;99.90
16066;DHT22;8137;48.952;8.970;2022-08-05T08:00:55;26.90;99.90
16066;DHT22;8137;48.952;8.970;2022-08-05T08:03:21;26.90;99.90
16066;DHT22;8137;48.952;8.970;2022-08-05T08:05:46;27.00;99.90
16066;DHT22;8137;48.952;8.970;2022-08-05T08:08:15;27.00;99.90
16066;DHT22;8137;48.952;8.970;2022-08-05T08:10:41;27.20;99.90
16066;DHT22;8137;48.952;8.970;2022-08-05T08:13:07;27.40;99.90
16066;DHT22;8137;48.952;8.970;2022-08-05T08:15:32;27.70;99.90
16066;DHT22;8137;48.952;8.970;2022-08-05T08:17:58;27.70;99.90
16066;DHT22;8137;48.952;8.970;2022-08-05T08:20:24;27.70;99.90
16066;DHT22;8137;48.952;8.970;2022-08-05T08:22:55;27.90;99.90
16066;DHT22;8137;48.952;8.970;2022-08-05T08:25:21;28.00;98.30
16066;DHT22;8137;48.952;8.970;2022-08-05T08:27:46;28.20;96.70
16066;DHT22;8137;48.952;8.970;2022-08-05T08:30:13;28.20;96.10
16066;DHT22;8137;48.952;8.970;2022-08-05T08:32:39;28.30;93.30
16066;DHT22;8137;48.952;8.970;2022-08-05T08:35:05;28.20;92.60
16066;DHT22;8137;48.952;8.970;2022-08-05T08:37:32;28.00;93.40
16066;DHT22;8137;48.952;8.970;2022-08-05T08:39:57;28.00;93.60
16066;DHT22;8137;48.952;8.970;2022-08-05T08:42:24;27.90;91.70
16066;DHT22;8137;48.952;8.970;2022-08-05T08:44:53;27.70;90.60
16066;DHT22;8137;48.952;8.970;2022-08-05T08:47:22;27.70;89.10
16066;DHT22;8137;48.952;8.970;2022-08-05T08:49:54;27.90;90.00
16066;DHT22;8137;48.952;8.970;2022-08-05T08:52:24;28.10;90.10
16066;DHT22;8137;48.952;8.970;2022-08-05T08:54:52;28.20;89.90
16066;DHT22;8137;48.952;8.970;2022-08-05T08:57:18;28.50;88.40
16066;DHT22;8137;48.952;8.970;2022-08-05T08:59:45;28.60;84.90
16066;DHT22;8137;48.952;8.970;2022-08-05T09:02:11;28.70;86.30
16066;DHT22;8137;48.952;8.970;2022-08-05T09:04:37;29.10;85.30
16066;DHT22;8137;48.952;8.970;2022-08-05T09:07:06;29.30;81.50
16066;DHT22;8137;48.952;8.970;2022-08-05T09:09:33;29.30;79.20
16066;DHT22;8137;48.952;8.970;2022-08-05T09:12:00;29.50;79.50
16066;DHT22;8137;48.952;8.970;2022-08-05T09:14:26;29.60;76.70
16066;DHT22;8137;48.952;8.970;2022-08-05T09:16:52;29.70;75.60
16066;DHT22;8137;48.952;8.970;2022-08-05T09:19:17;29.50;76.70
16066;DHT22;8137;48.952;8.970;2022-08-05T09:21:43;29.40;74.90
16066;DHT22;8137;48.952;8.970;2022-08-05T09:24:09;29.40;77.60
16066;DHT22;8137;48.952;8.970;2022-08-05T09:26:37;29.70;76.50
16066;DHT22;8137;48.952;8.970;2022-08-05T09:29:06;29.80;76.20
16066;DHT22;8137;48.952;8.970;2022-08-05T09:31:32;30.00;74.80
16066;DHT22;8137;48.952;8.970;2022-08-05T09:36:49;30.00;72.80
16066;DHT22;8137;48.952;8.970;2022-08-05T09:39:16;30.30;73.50
16066;DHT22;8137;48.952;8.970;2022-08-05T09:42:01;30.60;74.30
16066;DHT22;8137;48.952;8.970;2022-08-05T09:44:46;30.90;71.30
16066;DHT22;8137;48.952;8.970;2022-08-05T09:47:17;31.30;69.60
16066;DHT22;8137;48.952;8.970;2022-08-05T09:57:41;31.40;66.40
16066;DHT22;8137;48.952;8.970;2022-08-05T10:00:10;31.60;64.60
16066;DHT22;8137;48.952;8.970;2022-08-05T10:02:48;31.70;63.90
16066;DHT22;8137;48.952;8.970;2022-08-05T10:05:17;31.40;61.10
16066;DHT22;8137;48.952;8.970;2022-08-05T10:07:56;31.10;61.20
16066;DHT22;8137;48.952;8.970;2022-08-05T10:10:44;30.80;62.90
16066;DHT22;8137;48.952;8.970;2022-08-05T10:13:11;30.90;63.20
16066;DHT22;8137;48.952;8.970;2022-08-05T10:15:40;30.90;62.90
16066;DHT22;8137;48.952;8.970;2022-08-05T10:18:15;30.90;62.60
16066;DHT22;8137;48.952;8.970;2022-08-05T10:20:51;31.20;63.20
16066;DHT22;8137;48.952;8.970;2022-08-05T10:23:25;31.40;62.20
16066;DHT22;8137;48.952;8.970;2022-08-05T10:25:53;31.10;62.10
16066;DHT22;8137;48.952;8.970;2022-08-05T10:28:20;31.20;63.20
16066;DHT22;8137;48.952;8.970;2022-08-05T10:30:45;31.60;62.60
16066;DHT22;8137;48.952;8.970;2022-08-05T10:33:11;32.10;62.40
16066;DHT22;8137;48.952;8.970;2022-08-05T10:35:37;32.40;60.50
16066;DHT22;8137;48.952;8.970;2022-08-05T10:38:04;32.30;59.60
16066;DHT22;8137;48.952;8.970;2022-08-05T10:40:37;32.50;59.40
16066;DHT22;8137;48.952;8.970;2022-08-05T10:45:41;32.80;59.00
16066;DHT22;8137;48.952;8.970;2022-08-05T10:51:13;33.00;57.90
16066;DHT22;8137;48.952;8.970;2022-08-05T10:53:40;32.80;56.60
16066;DHT22;8137;48.952;8.970;2022-08-05T10:56:16;32.70;57.10
16066;DHT22;8137;48.952;8.970;2022-08-05T11:01:31;32.50;57.00
16066;DHT22;8137;48.952;8.970;2022-08-05T11:09:24;32.80;58.30
16066;DHT22;8137;48.952;8.970;2022-08-05T11:11:51;33.00;56.50
16066;DHT22;8137;48.952;8.970;2022-08-05T11:14:28;33.20;56.00
16066;DHT22;8137;48.952;8.970;2022-08-05T11:19:49;33.40;55.10
16066;DHT22;8137;48.952;8.970;2022-08-05T11:22:40;33.70;55.60
16066;DHT22;8137;48.952;8.970;2022-08-05T11:25:43;33.90;54.90
16066;DHT22;8137;48.952;8.970;2022-08-05T11:36:02;33.30;54.50
16066;DHT22;8137;48.952;8.970;2022-08-05T11:41:25;33.20;54.70
16066;DHT22;8137;48.952;8.970;2022-08-05T11:46:30;33.60;53.30
16066;DHT22;8137;48.952;8.970;2022-08-05T11:48:57;33.50;52.70
16066;DHT22;8137;48.952;8.970;2022-08-05T11:51:23;33.40;54.10
16066;DHT22;8137;48.952;8.970;2022-08-05T11:53:50;33.50;52.90
16066;DHT22;8137;48.952;8.970;2022-08-05T11:56:16;33.30;52.60
16066;DHT22;8137;48.952;8.970;2022-08-05T11:58:43;33.00;53.50
16066;DHT22;8137;48.952;8.970;2022-08-05T12:01:14;32.90;53.50
16066;DHT22;8137;48.952;8.970;2022-08-05T12:04:01;32.90;54.20
16066;DHT22;8137;48.952;8.970;2022-08-05T12:06:27;33.00;54.30
16066;DHT22;8137;48.952;8.970;2022-08-05T12:08:58;32.90;55.00
16066;DHT22;8137;48.952;8.970;2022-08-05T12:11:24;33.10;54.90
16066;DHT22;8137;48.952;8.970;2022-08-05T12:16:19;33.50;52.40
16066;DHT22;8137;48.952;8.970;2022-08-05T12:18:45;33.50;52.40
16066;DHT22;8137;48.952;8.970;2022-08-05T12:21:31;33.30;51.80
16066;DHT22;8137;48.952;8.970;2022-08-05T12:26:57;33.30;53.50
16066;DHT22;8137;48.952;8.970;2022-08-05T12:29:24;33.50;52.50
16066;DHT22;8137;48.952;8.970;2022-08-05T12:31:55;33.50;53.00
16066;DHT22;8137;48.952;8.970;2022-08-05T12:34:32;33.60;52.80
16066;DHT22;8137;48.952;8.970;2022-08-05T12:37:04;33.50;53.30
16066;DHT22;8137;48.952;8.970;2022-08-05T12:39:38;33.20;54.00
16066;DHT22;8137;48.952;8.970;2022-08-05T12:42:12;33.00;54.30
16066;DHT22;8137;48.952;8.970;2022-08-05T12:44:40;33.10;53.70
16066;DHT22;8137;48.952;8.970;2022-08-05T12:47:07;33.30;53.90
16066;DHT22;8137;48.952;8.970;2022-08-05T12:49:44;33.50;52.90
16066;DHT22;8137;48.952;8.970;2022-08-05T12:52:15;33.30;53.90
16066;DHT22;8137;48.952;8.970;2022-08-05T12:54:43;33.00;54.50
16066;DHT22;8137;48.952;8.970;2022-08-05T12:57:10;32.90;54.80
16066;DHT22;8137;48.952;8.970;2022-08-05T13:02:22;32.70;54.30
16066;DHT22;8137;48.952;8.970;2022-08-05T13:04:49;32.80;54.70
16066;DHT22;8137;48.952;8.970;2022-08-05T13:07:17;33.00;54.50
16066;DHT22;8137;48.952;8.970;2022-08-05T13:09:49;33.00;54.30
16066;DHT22;8137;48.952;8.970;2022-08-05T13:12:16;33.20;54.40
16066;DHT22;8137;48.952;8.970;2022-08-05T13:17:19;33.50;54.80
16066;DHT22;8137;48.952;8.970;2022-08-05T13:20:11;33.40;53.80
16066;DHT22;8137;48.952;8.970;2022-08-05T13:22:41;33.60;53.30
16066;DHT22;8137;48.952;8.970;2022-08-05T13:25:12;33.70;53.00
16066;DHT22;8137;48.952;8.970;2022-08-05T13:27:45;33.80;53.60
16066;DHT22;8137;48.952;8.970;2022-08-05T13:30:12;34.00;53.70
16066;DHT22;8137;48.952;8.970;2022-08-05T13:32:38;34.10;53.20
16066;DHT22;8137;48.952;8.970;2022-08-05T13:35:05;34.00;52.80
16066;DHT22;8137;48.952;8.970;2022-08-05T13:37:31;34.10;52.50
16066;DHT22;8137;48.952;8.970;2022-08-05T13:39:58;34.10;51.80
16066;DHT22;8137;48.952;8.970;2022-08-05T13:42:23;33.60;52.50
16066;DHT22;8137;48.952;8.970;2022-08-05T13:44:51;33.00;53.40
16066;DHT22;8137;48.952;8.970;2022-08-05T13:47:17;32.80;54.50
16066;DHT22;8137;48.952;8.970;2022-08-05T13:49:43;32.80;55.00
16066;DHT22;8137;48.952;8.970;2022-08-05T13:52:20;32.70;54.90
16066;DHT22;8137;48.952;8.970;2022-08-05T13:54:46;32.70;55.30
16066;DHT22;8137;48.952;8.970;2022-08-05T13:57:12;32.30;55.50
16066;DHT22;8137;48.952;8.970;2022-08-05T13:59:40;32.20;55.20
16066;DHT22;8137;48.952;8.970;2022-08-05T14:02:07;32.30;56.40
16066;DHT22;8137;48.952;8.970;2022-08-05T14:04:35;32.30;55.20
16066;DHT22;8137;48.952;8.970;2022-08-05T14:07:21;32.00;55.80
16066;DHT22;8137;48.952;8.970;2022-08-05T14:09:47;31.90;56.40
16066;DHT22;8137;48.952;8.970;2022-08-05T14:12:12;31.90;56.80
16066;DHT22;8137;48.952;8.970;2022-08-05T14:14:38;32.10;56.70
16066;DHT22;8137;48.952;8.970;2022-08-05T14:17:04;32.30;56.50
16066;DHT22;8137;48.952;8.970;2022-08-05T14:19:30;32.00;58.40
16066;DHT22;8137;48.952;8.970;2022-08-05T14:21:56;31.90;61.30
16066;DHT22;8137;48.952;8.970;2022-08-05T14:24:21;31.90;62.00
16066;DHT22;8137;48.952;8.970;2022-08-05T14:26:47;31.50;63.60
16066;DHT22;8137;48.952;8.970;2022-08-05T14:29:12;31.30;64.20
16066;DHT22;8137;48.952;8.970;2022-08-05T14:31:38;31.00;65.80
16066;DHT22;8137;48.952;8.970;2022-08-05T14:34:04;31.00;66.60
16066;DHT22;8137;48.952;8.970;2022-08-05T14:36:29;30.40;67.40
16066;DHT22;8137;48.952;8.970;2022-08-05T14:38:55;30.00;69.50
16066;DHT22;8137;48.952;8.970;2022-08-05T14:41:21;30.10;70.40
16066;DHT22;8137;48.952;8.970;2022-08-05T14:43:47;29.80;70.60
16066;DHT22;8137;48.952;8.970;2022-08-05T14:46:14;29.70;71.80
16066;DHT22;8137;48.952;8.970;2022-08-05T14:48:39;29.80;72.00
16066;DHT22;8137;48.952;8.970;2022-08-05T14:51:05;29.80;71.90
16066;DHT22;8137;48.952;8.970;2022-08-05T14:53:31;29.90;71.70
16066;DHT22;8137;48.952;8.970;2022-08-05T14:55:57;30.00;71.60
16066;DHT22;8137;48.952;8.970;2022-08-05T14:58:22;29.80;71.80
16066;DHT22;8137;48.952;8.970;2022-08-05T15:00:48;29.60;72.30
16066;DHT22;8137;48.952;8.970;2022-08-05T15:03:13;29.50;73.20
16066;DHT22;8137;48.952;8.970;2022-08-05T15:05:39;29.30;73.60
16066;DHT22;8137;48.952;8.970;2022-08-05T15:08:05;29.20;74.50
16066;DHT22;8137;48.952;8.970;2022-08-05T15:10:30;29.10;75.20
16066;DHT22;8137;48.952;8.970;2022-08-05T15:12:56;29.00;76.10
16066;DHT22;8137;48.952;8.970;2022-08-05T15:15:22;28.90;76.50
16066;DHT22;8137;48.952;8.970;2022-08-05T15:17:47;28.70;76.90
16066;DHT22;8137;48.952;8.970;2022-08-05T15:20:13;28.60;77.70
16066;DHT22;8137;48.952;8.970;2022-08-05T15:22:39;28.60;77.60
16066;DHT22;8137;48.952;8.970;2022-08-05T15:25:06;28.40;78.50
16066;DHT22;8137;48.952;8.970;2022-08-05T15:27:32;28.40;79.30
16066;DHT22;8137;48.952;8.970;2022-08-05T15:29:57;28.20;79.70
16066;DHT22;8137;48.952;8.970;2022-08-05T15:32:23;28.30;81.40
16066;DHT22;8137;48.952;8.970;2022-08-05T15:34:49;28.30;79.60
16066;DHT22;8137;48.952;8.970;2022-08-05T15:37:15;28.10;80.00
16066;DHT22;8137;48.952;8.970;2022-08-05T15:39:41;28.00;80.10
16066;DHT22;8137;48.952;8.970;2022-08-05T15:42:06;27.80;80.50
16066;DHT22;8137;48.952;8.970;2022-08-05T15:44:38;27.80;81.30
16066;DHT22;8137;48.952;8.970;2022-08-05T15:47:05;27.90;81.60
16066;DHT22;8137;48.952;8.970;2022-08-05T15:49:30;27.90;81.80
16066;DHT22;8137;48.952;8.970;2022-08-05T15:51:56;27.90;81.20
16066;DHT22;8137;48.952;8.970;2022-08-05T15:54:22;27.70;81.70
16066;DHT22;8137;48.952;8.970;2022-08-05T15:56:47;27.70;81.90
16066;DHT22;8137;48.952;8.970;2022-08-05T15:59:13;27.80;82.00
16066;DHT22;8137;48.952;8.970;2022-08-05T16:01:38;27.80;81.60
16066;DHT22;8137;48.952;8.970;2022-08-05T16:04:04;27.70;81.60
16066;DHT22;8137;48.952;8.970;2022-08-05T16:06:31;27.70;81.60
16066;DHT22;8137;48.952;8.970;2022-08-05T16:08:56;27.60;82.10
16066;DHT22;8137;48.952;8.970;2022-08-05T16:11:22;27.60;82.90
16066;DHT22;8137;48.952;8.970;2022-08-05T16:13:47;27.60;83.50
16066;DHT22;8137;48.952;8.970;2022-08-05T16:16:13;27.60;83.70
16066;DHT22;8137;48.952;8.970;2022-08-05T16:18:39;27.60;83.50
16066;DHT22;8137;48.952;8.970;2022-08-05T16:21:05;27.70;83.30
16066;DHT22;8137;48.952;8.970;2022-08-05T16:23:31;27.60;83.00
16066;DHT22;8137;48.952;8.970;2022-08-05T16:26:09;27.60;83.20
16066;DHT22;8137;48.952;8.970;2022-08-05T16:28:37;27.60;84.10
16066;DHT22;8137;48.952;8.970;2022-08-05T16:31:06;27.50;83.70
16066;DHT22;8137;48.952;8.970;2022-08-05T16:33:32;27.40;84.80
16066;DHT22;8137;48.952;8.970;2022-08-05T16:36:02;27.40;85.50
16066;DHT22;8137;48.952;8.970;2022-08-05T16:38:28;27.30;85.90
16066;DHT22;8137;48.952;8.970;2022-08-05T16:40:54;27.30;86.90
16066;DHT22;8137;48.952;8.970;2022-08-05T16:43:26;27.20;87.40
16066;DHT22;8137;48.952;8.970;2022-08-05T16:45:53;27.20;87.70
16066;DHT22;8137;48.952;8.970;2022-08-05T16:48:20;27.20;87.80
16066;DHT22;8137;48.952;8.970;2022-08-05T16:50:45;27.20;88.00
16066;DHT22;8137;48.952;8.970;2022-08-05T16:53:11;27.30;88.90
16066;DHT22;8137;48.952;8.970;2022-08-05T16:55:37;27.40;88.50
16066;DHT22;8137;48.952;8.970;2022-08-05T16:58:02;27.50;88.30
16066;DHT22;8137;48.952;8.970;2022-08-05T17:00:28;27.60;88.10